createdAt,value
2023-05-23T00:01:46.830Z,11.73
2023-05-23T00:04:13.568Z,10.07
2023-05-23T00:06:40.296Z,10.50
2023-05-23T00:09:07.123Z,8.90
2023-05-23T00:11:33.876Z,9.57
2023-05-23T00:14:00.499Z,11.05
2023-05-23T00:16:27.189Z,8.80
2023-05-23T00:18:53.871Z,8.90
2023-05-23T00:21:20.599Z,8.75
2023-05-23T00:23:47.262Z,8.15
2023-05-23T00:26:13.880Z,9.60
2023-05-23T00:28:45.747Z,10.68
2023-05-23T00:31:12.599Z,8.45
2023-05-23T00:33:39.231Z,9.88
2023-05-23T00:36:06.108Z,11.05
2023-05-23T00:38:32.805Z,13.32
2023-05-23T00:40:59.459Z,11.65
2023-05-23T00:43:27.354Z,9.02
2023-05-23T00:45:54.058Z,10.45
2023-05-23T00:48:21.402Z,7.80
2023-05-23T00:50:48.094Z,7.80
2023-05-23T00:53:14.913Z,10.70
2023-05-23T00:55:41.665Z,9.95
2023-05-23T00:58:09.085Z,10.10
2023-05-23T01:00:36.028Z,8.33
2023-05-23T01:03:02.808Z,10.95
2023-05-23T01:05:29.706Z,10.30
2023-05-23T01:07:56.635Z,9.35
2023-05-23T01:10:28.406Z,9.55
2023-05-23T01:12:58.446Z,6.60
2023-05-23T01:15:55.884Z,9.07
2023-05-23T01:18:31.958Z,10.60
2023-05-23T01:21:09.644Z,9.07
2023-05-23T01:24:03.007Z,9.80
2023-05-23T01:27:01.203Z,8.10
2023-05-23T01:29:37.075Z,12.18
2023-05-23T01:32:07.371Z,16.00
2023-05-23T01:34:36.839Z,8.63
2023-05-23T01:37:08.896Z,7.95
2023-05-23T01:39:37.164Z,11.32
2023-05-23T01:42:04.731Z,9.07
2023-05-23T01:44:34.596Z,8.05
2023-05-23T01:47:03.382Z,9.23
2023-05-23T01:49:31.411Z,8.68
2023-05-23T01:52:00.641Z,6.43
2023-05-23T01:54:29.815Z,11.27
2023-05-23T01:57:01.477Z,9.77
2023-05-23T01:59:28.222Z,7.38
2023-05-23T02:01:56.603Z,12.15
2023-05-23T02:04:23.269Z,11.27
2023-05-23T02:06:49.914Z,10.32
2023-05-23T02:09:16.605Z,7.20
2023-05-23T02:11:44.863Z,8.98
2023-05-23T02:14:11.582Z,10.60
2023-05-23T02:16:38.419Z,8.00
2023-05-23T02:19:05.331Z,9.55
2023-05-23T02:21:34.223Z,6.82
2023-05-23T02:24:03.361Z,9.93
2023-05-23T02:26:30.505Z,9.05
2023-05-23T02:28:57.172Z,10.40
2023-05-23T02:31:24.967Z,10.60
2023-05-23T02:33:51.881Z,7.20
2023-05-23T02:36:18.565Z,9.70
2023-05-23T02:38:45.273Z,12.43
2023-05-23T02:41:12.486Z,15.00
2023-05-23T02:43:39.221Z,10.82
2023-05-23T02:46:06.133Z,10.70
2023-05-23T02:48:33.087Z,10.32
2023-05-23T02:51:00.030Z,11.77
2023-05-23T02:53:26.758Z,16.95
2023-05-23T02:55:53.984Z,9.30
2023-05-23T02:58:20.849Z,11.15
2023-05-23T03:00:47.570Z,9.32
2023-05-23T03:03:14.229Z,14.43
2023-05-23T03:05:41.123Z,8.27
2023-05-23T03:08:07.872Z,9.85
2023-05-23T03:10:34.544Z,9.23
2023-05-23T03:13:01.256Z,11.30
2023-05-23T03:15:28.037Z,11.93
2023-05-23T03:17:55.001Z,13.10
2023-05-23T03:20:21.759Z,8.65
2023-05-23T03:22:48.355Z,11.50
2023-05-23T03:25:18.837Z,8.75
2023-05-23T03:27:45.579Z,9.60
2023-05-23T03:30:12.867Z,8.57
2023-05-23T03:32:39.613Z,11.53
2023-05-23T03:35:06.889Z,9.35
2023-05-23T03:37:33.495Z,13.53
2023-05-23T03:40:00.396Z,13.43
2023-05-23T03:42:28.480Z,10.35
2023-05-23T03:44:55.762Z,11.25
2023-05-23T03:47:23.503Z,12.68
2023-05-23T03:49:51.296Z,11.05
2023-05-23T03:52:18.123Z,11.10
2023-05-23T03:54:45.277Z,12.13
2023-05-23T03:57:12.866Z,11.90
2023-05-23T03:59:39.705Z,12.55
2023-05-23T04:02:09.939Z,11.45
2023-05-23T04:04:36.693Z,10.40
2023-05-23T04:07:04.654Z,12.20
2023-05-23T04:09:31.721Z,16.05
2023-05-23T04:11:59.654Z,12.13
2023-05-23T04:14:27.553Z,10.30
2023-05-23T04:16:55.446Z,10.80
2023-05-23T04:19:23.040Z,12.65
2023-05-23T04:21:51.923Z,12.35
2023-05-23T04:24:19.301Z,12.70
2023-05-23T04:26:46.517Z,13.73
2023-05-23T04:29:13.241Z,10.63
2023-05-23T04:31:40.033Z,11.73
2023-05-23T04:34:06.879Z,10.02
2023-05-23T04:36:38.024Z,12.68
2023-05-23T04:39:06.109Z,12.73
2023-05-23T04:41:36.878Z,10.75
2023-05-23T04:44:08.829Z,11.50
2023-05-23T04:46:39.994Z,14.32
2023-05-23T04:49:23.040Z,9.98
2023-05-23T04:51:50.781Z,15.07
2023-05-23T04:54:21.277Z,13.57
2023-05-23T04:56:48.017Z,14.30
2023-05-23T04:59:17.815Z,15.32
2023-05-23T05:01:44.606Z,12.68
2023-05-23T05:06:41.135Z,10.93
2023-05-23T05:09:09.386Z,14.85
2023-05-23T05:11:36.144Z,12.88
2023-05-23T05:14:03.169Z,10.63
2023-05-23T05:16:30.346Z,12.27
2023-05-23T05:18:57.170Z,12.75
2023-05-23T05:21:23.883Z,13.82
2023-05-23T05:23:50.748Z,15.80
2023-05-23T05:26:17.853Z,11.07
2023-05-23T05:28:44.660Z,13.60
2023-05-23T05:31:12.187Z,13.82
2023-05-23T05:33:39.711Z,13.02
2023-05-23T05:36:12.675Z,12.75
2023-05-23T05:38:40.248Z,10.57
2023-05-23T05:41:09.101Z,12.00
2023-05-23T05:43:39.745Z,11.07
2023-05-23T05:46:06.442Z,13.43
2023-05-23T05:48:33.488Z,11.35
2023-05-23T05:51:05.366Z,13.95
2023-05-23T05:53:33.650Z,11.93
2023-05-23T05:56:01.009Z,12.23
2023-05-23T05:58:28.804Z,16.13
2023-05-23T06:01:01.868Z,13.82
2023-05-23T06:03:28.811Z,11.88
2023-05-23T06:05:56.096Z,13.85
2023-05-23T06:08:23.115Z,14.93
2023-05-23T06:10:49.946Z,13.30
2023-05-23T06:13:17.087Z,15.60
2023-05-23T06:15:47.627Z,12.32
2023-05-23T06:18:14.416Z,16.50
2023-05-23T06:20:41.420Z,14.82
2023-05-23T06:23:13.015Z,17.25
2023-05-23T06:25:40.355Z,15.35
2023-05-23T06:28:06.997Z,16.08
2023-05-23T06:30:33.856Z,15.38
2023-05-23T06:33:00.478Z,13.32
2023-05-23T06:35:27.129Z,15.80
2023-05-23T06:37:53.940Z,15.00
2023-05-23T06:40:20.762Z,15.88
2023-05-23T06:42:47.540Z,16.88
2023-05-23T06:45:24.268Z,12.90
2023-05-23T06:47:51.345Z,15.38
2023-05-23T06:50:18.480Z,21.42
2023-05-23T06:52:45.227Z,13.68
2023-05-23T06:55:12.117Z,13.20
2023-05-23T06:57:39.366Z,18.75
2023-05-23T07:00:06.924Z,14.30
2023-05-23T07:02:39.959Z,12.73
2023-05-23T07:05:07.275Z,12.93
2023-05-23T07:07:52.267Z,17.33
2023-05-23T07:10:19.506Z,16.33
2023-05-23T07:12:48.062Z,19.77
2023-05-23T07:15:16.717Z,24.17
2023-05-23T07:18:05.209Z,24.42
2023-05-23T07:20:35.522Z,17.20
2023-05-23T07:23:10.881Z,15.70
2023-05-23T07:25:40.413Z,17.63
2023-05-23T07:28:20.260Z,16.92
2023-05-23T07:30:47.150Z,20.50
2023-05-23T07:33:14.271Z,17.30
2023-05-23T07:35:44.504Z,21.98
2023-05-23T07:38:11.241Z,21.75
2023-05-23T07:40:38.082Z,21.52
2023-05-23T07:43:05.298Z,19.40
2023-05-23T07:45:32.415Z,18.27
2023-05-23T07:48:00.523Z,22.80
2023-05-23T07:52:55.259Z,17.35
2023-05-23T07:55:27.888Z,21.00
2023-05-23T07:57:55.174Z,19.48
2023-05-23T08:00:22.091Z,20.75
2023-05-23T08:02:54.846Z,21.70
2023-05-23T08:05:27.350Z,22.42
2023-05-23T08:07:56.592Z,21.55
2023-05-23T08:12:52.786Z,20.48
2023-05-23T08:15:19.750Z,17.65
2023-05-23T08:17:51.623Z,19.60
2023-05-23T08:20:18.394Z,18.20
2023-05-23T08:22:46.048Z,26.85
2023-05-23T08:25:12.683Z,20.20
2023-05-23T08:30:29.860Z,20.30
2023-05-23T08:32:57.563Z,17.53
2023-05-23T08:35:24.275Z,17.05
2023-05-23T08:37:51.656Z,22.35
2023-05-23T08:40:22.974Z,20.60
2023-05-23T08:43:03.387Z,19.88
2023-05-23T08:45:31.082Z,22.20
2023-05-23T08:50:30.301Z,20.17
2023-05-23T08:52:59.951Z,20.02
2023-05-23T08:55:29.456Z,21.88
2023-05-23T08:57:59.155Z,24.45
2023-05-23T09:00:52.815Z,22.83
2023-05-23T09:03:20.686Z,18.92
2023-05-23T09:06:12.065Z,20.92
2023-05-23T09:08:39.406Z,16.70
2023-05-23T09:11:06.668Z,25.92
2023-05-23T09:13:37.180Z,18.92
2023-05-23T09:16:11.203Z,21.20
2023-05-23T09:18:44.601Z,23.02
2023-05-23T09:21:14.544Z,17.95
2023-05-23T09:23:59.136Z,20.38
2023-05-23T09:26:27.224Z,17.90
2023-05-23T09:28:58.233Z,22.90
2023-05-23T09:31:27.411Z,21.20
2023-05-23T09:33:54.189Z,18.05
2023-05-23T09:36:20.822Z,20.13
2023-05-23T09:38:48.176Z,21.17
2023-05-23T09:41:15.033Z,17.27
2023-05-23T09:43:52.328Z,18.00
2023-05-23T09:46:21.306Z,21.15
2023-05-23T09:48:51.201Z,23.35
2023-05-23T09:51:20.098Z,19.58
2023-05-23T09:53:46.991Z,22.02
2023-05-23T09:56:15.911Z,24.30
2023-05-23T09:58:47.306Z,20.52
2023-05-23T10:01:15.281Z,21.80
2023-05-23T10:06:51.209Z,20.02
2023-05-23T10:09:20.712Z,30.75
2023-05-23T10:12:24.965Z,20.08
2023-05-23T10:14:55.609Z,21.23
2023-05-23T10:17:46.984Z,20.88
2023-05-23T10:20:16.899Z,27.00
2023-05-23T10:22:43.660Z,22.50
2023-05-23T10:25:10.893Z,23.45
2023-05-23T10:27:40.871Z,21.40
2023-05-23T10:30:08.673Z,20.55
2023-05-23T10:32:37.358Z,26.83
2023-05-23T10:35:45.910Z,23.38
2023-05-23T10:38:34.396Z,25.35
2023-05-23T10:41:10.777Z,20.95
2023-05-23T10:43:40.247Z,21.85
2023-05-23T10:46:09.974Z,22.48
2023-05-23T10:48:42.455Z,21.45
2023-05-23T10:51:10.900Z,22.17
2023-05-23T10:53:43.200Z,24.30
2023-05-23T10:56:12.111Z,21.60
2023-05-23T10:58:39.708Z,22.98
2023-05-23T11:01:15.477Z,23.50
2023-05-23T11:03:49.928Z,21.10
2023-05-23T11:06:42.285Z,25.17
2023-05-23T11:09:17.506Z,20.48
2023-05-23T11:12:02.045Z,27.77
2023-05-23T11:14:37.979Z,27.63
2023-05-23T11:17:13.293Z,24.85
2023-05-23T11:19:40.257Z,22.30
2023-05-23T11:22:10.195Z,20.03
2023-05-23T11:24:53.243Z,19.77
2023-05-23T11:27:36.526Z,23.45
2023-05-23T11:30:07.697Z,20.88
2023-05-23T11:32:35.289Z,20.70
2023-05-23T11:35:04.463Z,26.15
2023-05-23T11:37:31.756Z,21.20
2023-05-23T11:39:58.661Z,18.73
2023-05-23T11:42:25.795Z,24.35
2023-05-23T11:44:52.933Z,23.90
2023-05-23T11:47:20.087Z,19.10
2023-05-23T11:49:47.447Z,24.17
2023-05-23T11:52:14.468Z,17.77
2023-05-23T11:54:44.356Z,18.30
2023-05-23T11:57:11.480Z,23.55
2023-05-23T11:59:38.770Z,21.15
2023-05-23T12:02:06.876Z,15.18
2023-05-23T12:04:35.422Z,15.18
2023-05-23T12:07:05.023Z,19.95
2023-05-23T12:09:31.710Z,15.60
2023-05-23T12:11:58.406Z,17.30
2023-05-23T12:14:29.047Z,15.38
2023-05-23T12:16:55.796Z,19.90
2023-05-23T12:19:22.465Z,18.60
2023-05-23T12:21:50.145Z,14.15
2023-05-23T12:24:18.029Z,17.88
2023-05-23T12:29:20.480Z,16.70
2023-05-23T12:31:50.730Z,17.92
2023-05-23T12:34:18.027Z,12.57
2023-05-23T12:36:48.952Z,20.63
2023-05-23T12:39:16.592Z,14.23
2023-05-23T12:41:43.576Z,16.63
2023-05-23T12:44:10.289Z,15.70
2023-05-23T12:46:37.393Z,19.83
2023-05-23T12:49:04.104Z,12.52
2023-05-23T12:51:30.748Z,15.15
2023-05-23T12:53:57.415Z,16.17
2023-05-23T12:56:24.185Z,15.18
2023-05-23T12:58:50.813Z,14.23
2023-05-23T13:01:17.469Z,17.10
2023-05-23T13:03:44.150Z,15.32
2023-05-23T13:06:10.879Z,17.38
2023-05-23T13:08:37.786Z,16.35
2023-05-23T13:11:04.863Z,16.63
2023-05-23T13:13:31.528Z,14.70
2023-05-23T13:15:58.551Z,16.27
2023-05-23T13:18:25.569Z,18.75
2023-05-23T13:20:53.311Z,14.27
2023-05-23T13:23:20.076Z,20.92
2023-05-23T13:25:46.827Z,14.95
2023-05-23T13:28:13.444Z,13.30
2023-05-23T13:30:40.169Z,14.07
2023-05-23T13:33:07.134Z,16.75
2023-05-23T13:35:33.958Z,12.45
2023-05-23T13:38:00.808Z,13.18
2023-05-23T13:40:27.451Z,13.93
2023-05-23T13:42:54.332Z,13.43
2023-05-23T13:45:21.151Z,16.55
2023-05-23T13:47:47.876Z,11.52
2023-05-23T13:50:14.716Z,10.88
2023-05-23T13:52:44.865Z,12.95
2023-05-23T13:55:13.359Z,13.20
2023-05-23T13:57:39.998Z,13.80
2023-05-23T14:00:07.376Z,13.85
2023-05-23T14:02:34.712Z,16.05
2023-05-23T14:05:01.622Z,12.02
2023-05-23T14:07:28.406Z,12.80
2023-05-23T14:09:55.075Z,12.55
2023-05-23T14:12:21.825Z,10.25
2023-05-23T14:14:48.431Z,12.77
2023-05-23T14:17:16.235Z,15.20
2023-05-23T14:19:43.392Z,9.88
2023-05-23T14:22:10.155Z,7.60
2023-05-23T14:24:37.020Z,7.70
2023-05-23T14:27:04.272Z,8.25
2023-05-23T14:29:30.965Z,8.23
2023-05-23T14:31:57.604Z,8.95
2023-05-23T14:34:24.289Z,9.05
2023-05-23T14:36:51.008Z,7.90
2023-05-23T14:39:17.646Z,5.90
2023-05-23T14:41:44.393Z,9.15
2023-05-23T14:44:10.988Z,8.40
2023-05-23T14:46:37.679Z,8.77
2023-05-23T14:49:04.374Z,9.13
2023-05-23T14:51:44.918Z,10.02
2023-05-23T14:54:15.575Z,9.05
2023-05-23T14:56:42.178Z,6.88
2023-05-23T14:59:09.088Z,7.45
2023-05-23T15:01:37.979Z,10.27
2023-05-23T15:04:06.251Z,6.97
2023-05-23T15:06:32.980Z,5.07
2023-05-23T15:08:59.598Z,8.75
2023-05-23T15:11:27.722Z,5.72
2023-05-23T15:13:54.569Z,6.25
2023-05-23T15:16:21.262Z,9.60
2023-05-23T15:18:48.063Z,8.73
2023-05-23T15:21:14.906Z,10.00
2023-05-23T15:23:41.673Z,6.57
2023-05-23T15:26:08.498Z,7.05
2023-05-23T15:28:35.047Z,6.63
2023-05-23T15:31:01.785Z,5.80
2023-05-23T15:33:28.457Z,7.18
2023-05-23T15:35:55.153Z,7.43
2023-05-23T15:38:21.765Z,7.43
2023-05-23T15:40:48.411Z,6.03
2023-05-23T15:43:15.142Z,8.02
2023-05-23T15:45:41.813Z,8.13
2023-05-23T15:48:08.553Z,5.30
2023-05-23T15:50:35.349Z,8.13
2023-05-23T15:53:02.196Z,6.40
2023-05-23T15:55:28.970Z,7.40
2023-05-23T15:57:55.636Z,9.07
2023-05-23T16:00:22.395Z,12.68
2023-05-23T16:02:49.111Z,7.25
2023-05-23T16:05:15.794Z,8.52
2023-05-23T16:07:42.586Z,11.55
2023-05-23T16:10:09.955Z,7.72
2023-05-23T16:12:36.577Z,7.33
2023-05-23T16:15:03.557Z,9.20
2023-05-23T16:17:30.217Z,6.75
2023-05-23T16:19:56.805Z,6.70
2023-05-23T16:22:23.764Z,8.90
2023-05-23T16:24:55.349Z,8.48
2023-05-23T16:27:23.398Z,7.03
2023-05-23T16:29:50.071Z,10.60
2023-05-23T16:32:16.682Z,6.75
2023-05-23T16:34:46.892Z,8.43
2023-05-23T16:37:16.393Z,5.85
2023-05-23T16:39:43.012Z,7.30
2023-05-23T16:42:09.688Z,7.30
2023-05-23T16:44:36.336Z,10.27
2023-05-23T16:47:03.018Z,6.78
2023-05-23T16:49:29.663Z,8.05
2023-05-23T16:51:56.342Z,6.85
2023-05-23T16:54:22.974Z,9.38
2023-05-23T16:56:49.638Z,9.13
2023-05-23T16:59:16.325Z,5.07
2023-05-23T17:01:42.948Z,10.88
2023-05-23T17:04:09.801Z,5.90
2023-05-23T17:06:36.429Z,7.15
2023-05-23T17:09:03.243Z,6.82
2023-05-23T17:11:29.928Z,10.35
2023-05-23T17:13:56.666Z,5.85
2023-05-23T17:16:23.407Z,4.65
2023-05-23T17:18:50.141Z,5.97
2023-05-23T17:21:16.885Z,4.32
2023-05-23T17:23:43.530Z,5.15
2023-05-23T17:26:10.358Z,6.00
2023-05-23T17:28:36.976Z,4.30
2023-05-23T17:31:03.659Z,5.30
2023-05-23T17:33:30.353Z,5.93
2023-05-23T17:35:57.078Z,7.93
2023-05-23T17:38:24.236Z,5.47
2023-05-23T17:40:50.877Z,4.40
2023-05-23T17:43:17.532Z,3.47
2023-05-23T17:45:44.215Z,5.68
2023-05-23T17:48:10.965Z,6.85
2023-05-23T17:50:37.797Z,3.70
2023-05-23T17:53:05.702Z,3.83
2023-05-23T17:55:32.425Z,3.50
2023-05-23T17:57:59.059Z,5.43
2023-05-23T18:00:25.808Z,7.70
2023-05-23T18:02:52.598Z,5.45
2023-05-23T18:05:21.514Z,5.15
2023-05-23T18:07:48.147Z,3.97
2023-05-23T18:10:14.873Z,4.47
2023-05-23T18:12:41.506Z,3.97
2023-05-23T18:15:08.929Z,4.97
2023-05-23T18:17:35.845Z,5.68
2023-05-23T18:20:02.684Z,4.32
2023-05-23T18:22:29.330Z,5.30
2023-05-23T18:24:55.948Z,4.80
2023-05-23T18:27:22.734Z,8.32
2023-05-23T18:29:49.449Z,5.10
2023-05-23T18:32:16.115Z,4.07
2023-05-23T18:34:42.757Z,4.65
2023-05-23T18:37:09.375Z,3.47
2023-05-23T18:39:36.110Z,3.85
2023-05-23T18:42:03.067Z,2.58
2023-05-23T18:44:29.660Z,3.85
2023-05-23T18:46:56.410Z,4.50
2023-05-23T18:49:23.179Z,14.63
2023-05-23T18:51:49.819Z,12.52
2023-05-23T18:54:16.399Z,6.78
2023-05-23T18:56:43.051Z,5.28
2023-05-23T18:59:09.699Z,5.28
2023-05-23T19:01:36.375Z,10.75
2023-05-23T19:04:03.093Z,6.28
2023-05-23T19:06:29.817Z,4.97
2023-05-23T19:08:56.436Z,2.88
2023-05-23T19:11:23.689Z,7.10
2023-05-23T19:13:50.436Z,3.27
2023-05-23T19:16:17.133Z,5.15
2023-05-23T19:18:43.901Z,5.05
2023-05-23T19:21:10.532Z,7.82
2023-05-23T19:23:38.684Z,6.55
2023-05-23T19:26:05.400Z,3.08
2023-05-23T19:28:32.000Z,2.20
2023-05-23T19:30:58.615Z,2.35
2023-05-23T19:33:25.374Z,2.83
2023-05-23T19:35:51.965Z,2.83
2023-05-23T19:38:18.762Z,3.88
2023-05-23T19:40:46.664Z,4.05
2023-05-23T19:43:13.360Z,2.95
2023-05-23T19:45:40.112Z,2.83
2023-05-23T19:48:07.007Z,3.58
2023-05-23T19:50:33.625Z,2.83
2023-05-23T19:53:00.303Z,2.33
2023-05-23T19:55:27.531Z,3.60
2023-05-23T19:57:54.221Z,2.90
2023-05-23T20:00:20.918Z,2.30
2023-05-23T20:02:47.888Z,4.05
2023-05-23T20:05:14.685Z,2.50
2023-05-23T20:07:41.301Z,3.03
2023-05-23T20:10:08.760Z,2.35
2023-05-23T20:12:35.671Z,2.20
2023-05-23T20:15:03.072Z,2.60
2023-05-23T20:17:29.835Z,3.08
2023-05-23T20:19:56.557Z,2.15
2023-05-23T20:22:23.305Z,2.33
2023-05-23T20:24:50.031Z,2.40
2023-05-23T20:27:16.658Z,1.92
2023-05-23T20:29:43.263Z,3.55
2023-05-23T20:32:10.134Z,2.72
2023-05-23T20:34:36.739Z,2.30
2023-05-23T20:37:03.464Z,2.65
2023-05-23T20:39:30.135Z,3.25
2023-05-23T20:41:56.865Z,2.35
2023-05-23T20:44:23.516Z,2.35
2023-05-23T20:46:50.261Z,3.45
2023-05-23T20:49:16.898Z,3.85
2023-05-23T20:51:43.576Z,3.05
2023-05-23T20:54:10.311Z,2.88
2023-05-23T20:56:37.057Z,2.85
2023-05-23T20:59:03.701Z,2.97
2023-05-23T21:01:30.505Z,3.40
2023-05-23T21:03:57.345Z,2.42
2023-05-23T21:06:23.971Z,1.80
2023-05-23T21:08:50.622Z,2.63
2023-05-23T21:11:17.236Z,5.60
2023-05-23T21:13:43.914Z,5.03
2023-05-23T21:16:10.592Z,2.00
2023-05-23T21:18:37.201Z,9.00
2023-05-23T21:21:04.017Z,1.83
2023-05-23T21:23:30.621Z,2.40
2023-05-23T21:25:57.220Z,2.17
2023-05-23T21:28:23.872Z,6.50
2023-05-23T21:30:51.054Z,3.92
2023-05-23T21:33:17.680Z,3.40
2023-05-23T21:35:44.381Z,2.30
2023-05-23T21:38:11.340Z,1.98
2023-05-23T21:40:38.012Z,2.20
2023-05-23T21:43:04.702Z,5.13
2023-05-23T21:45:31.458Z,2.75
2023-05-23T21:47:58.372Z,2.00
2023-05-23T21:50:25.062Z,2.58
2023-05-23T21:52:51.661Z,2.92
2023-05-23T21:55:18.298Z,2.45
2023-05-23T21:57:44.963Z,2.28
2023-05-23T22:00:12.225Z,2.63
2023-05-23T22:02:41.623Z,2.90
2023-05-23T22:05:08.400Z,3.45
2023-05-23T22:07:35.218Z,2.53
2023-05-23T22:10:02.012Z,3.53
2023-05-23T22:12:28.725Z,3.20
2023-05-23T22:14:55.501Z,3.03
2023-05-23T22:17:22.211Z,5.03
2023-05-23T22:19:49.058Z,2.92
2023-05-23T22:22:15.665Z,2.13
2023-05-23T22:24:42.385Z,2.55
2023-05-23T22:27:09.080Z,5.63
2023-05-23T22:29:35.901Z,2.60
2023-05-23T22:32:02.626Z,2.47
2023-05-23T22:34:29.536Z,2.10
2023-05-23T22:36:58.247Z,3.42
2023-05-23T22:39:26.733Z,3.42
2023-05-23T22:41:53.575Z,5.60
2023-05-23T22:44:20.296Z,3.55
2023-05-23T22:46:47.044Z,3.05
2023-05-23T22:49:13.688Z,3.58
2023-05-23T22:51:40.577Z,2.97
2023-05-23T22:54:07.326Z,2.88
2023-05-23T22:56:33.918Z,3.70
2023-05-23T22:59:00.613Z,3.72
2023-05-23T23:01:27.286Z,3.85
2023-05-23T23:03:54.019Z,4.10
2023-05-23T23:06:20.794Z,11.45
2023-05-23T23:08:47.578Z,3.03
2023-05-23T23:11:14.398Z,3.30
2023-05-23T23:13:41.068Z,3.25
2023-05-23T23:16:08.004Z,5.47
2023-05-23T23:18:34.709Z,2.83
2023-05-23T23:21:01.338Z,7.20
2023-05-23T23:23:27.970Z,5.57
2023-05-23T23:25:54.695Z,4.45
2023-05-23T23:28:21.605Z,3.50
2023-05-23T23:30:48.286Z,6.65
2023-05-23T23:33:15.058Z,4.72
2023-05-23T23:35:41.912Z,3.28
2023-05-23T23:38:08.663Z,5.18
2023-05-23T23:40:35.354Z,4.00
2023-05-23T23:43:02.059Z,2.95
2023-05-23T23:45:28.692Z,3.13
2023-05-23T23:47:55.436Z,4.32
2023-05-23T23:50:22.222Z,3.47
2023-05-23T23:52:48.870Z,3.53
2023-05-23T23:55:15.489Z,3.22
2023-05-23T23:57:42.122Z,3.53
